VLG5WB LEBL-LEAS
Flight info
| Callsign | VLG5WB |
|---|---|
| Flight time | 1h 8m |
| Altitude | 31000 |
| Route | GRAUS M601 POSSY/N0433F330 M601 BLV M190 AMAKA |
| Aircraft | A320/M-SDE3FGHIRWY/LB1 |
Departure
| Time | 2026-05-07 14:48 |
|---|---|
| Airport | Josep Tarradellas Barcelona-El Prat Airport (LEBL) |
Arrival
| Time | 2026-05-07 15:56 |
|---|---|
| Airport | Asturias Airport (LEAS) |
| Time | Latitude | Longitude | Altitude | Speed | Heading |
|---|---|---|---|---|---|
| 2026-05-07 14:07 | 41.29076 | 2.07742 | 19 ft | 0 kts | 155° |
| 2026-05-07 14:31 | 41.29081 | 2.07739 | 19 ft | 2 kts | 156° |
| 2026-05-07 14:32 | 41.29096 | 2.07731 | 21 ft | 2 kts | 161° |
| 2026-05-07 14:32 | 41.29112 | 2.07725 | 20 ft | 2 kts | 167° |
| 2026-05-07 14:32 | 41.29128 | 2.07720 | 20 ft | 2 kts | 176° |
| 2026-05-07 14:32 | 41.29145 | 2.07721 | 21 ft | 2 kts | 194° |
| 2026-05-07 14:33 | 41.29160 | 2.07729 | 19 ft | 2 kts | 222° |
| 2026-05-07 14:33 | 41.29171 | 2.07745 | 20 ft | 2 kts | 242° |
| 2026-05-07 14:33 | 41.29174 | 2.07752 | 19 ft | 0 kts | 245° |
| 2026-05-07 14:37 | 41.29173 | 2.07751 | 20 ft | 1 kts | 245° |
| 2026-05-07 14:37 | 41.29166 | 2.07727 | 20 ft | 4 kts | 248° |
| 2026-05-07 14:38 | 41.29163 | 2.07678 | 19 ft | 7 kts | 294° |
| 2026-05-07 14:38 | 41.29208 | 2.07635 | 21 ft | 9 kts | 336° |
| 2026-05-07 14:38 | 41.29278 | 2.07593 | 17 ft | 13 kts | 336° |
| 2026-05-07 14:38 | 41.29374 | 2.07536 | 16 ft | 12 kts | 341° |
| 2026-05-07 14:39 | 41.29433 | 2.07597 | 17 ft | 13 kts | 57° |
| 2026-05-07 14:39 | 41.29474 | 2.07717 | 17 ft | 16 kts | 67° |
| 2026-05-07 14:39 | 41.29511 | 2.07829 | 17 ft | 14 kts | 65° |
| 2026-05-07 14:39 | 41.29555 | 2.07951 | 18 ft | 16 kts | 64° |
| 2026-05-07 14:40 | 41.29605 | 2.08098 | 17 ft | 19 kts | 65° |
| 2026-05-07 14:40 | 41.29625 | 2.08156 | 19 ft | 2 kts | 65° |
| 2026-05-07 14:40 | 41.29635 | 2.08186 | 17 ft | 5 kts | 65° |
| 2026-05-07 14:40 | 41.29648 | 2.08225 | 17 ft | 0 kts | 65° |
| 2026-05-07 14:41 | 41.29647 | 2.08228 | 17 ft | 0 kts | 93° |
| 2026-05-07 14:41 | 41.29644 | 2.08230 | 24 ft | 0 kts | 123° |
| 2026-05-07 14:41 | 41.29636 | 2.08232 | 26 ft | 4 kts | 161° |
| 2026-05-07 14:41 | 41.29559 | 2.08265 | 18 ft | 19 kts | 161° |
| 2026-05-07 14:42 | 41.29413 | 2.08350 | 18 ft | 26 kts | 155° |
| 2026-05-07 14:42 | 41.29249 | 2.08452 | 21 ft | 25 kts | 156° |
| 2026-05-07 14:42 | 41.29136 | 2.08416 | 21 ft | 18 kts | 202° |
| 2026-05-07 14:42 | 41.29003 | 2.08356 | 19 ft | 22 kts | 199° |
| 2026-05-07 14:43 | 41.28847 | 2.08283 | 17 ft | 26 kts | 198° |
| 2026-05-07 14:43 | 41.28689 | 2.08212 | 18 ft | 15 kts | 212° |
| 2026-05-07 14:43 | 41.28641 | 2.08084 | 17 ft | 17 kts | 245° |
| 2026-05-07 14:43 | 41.28588 | 2.07930 | 16 ft | 20 kts | 245° |
| 2026-05-07 14:44 | 41.28529 | 2.07755 | 16 ft | 22 kts | 245° |
| 2026-05-07 14:44 | 41.28471 | 2.07596 | 16 ft | 14 kts | 232° |
| 2026-05-07 14:44 | 41.28399 | 2.07550 | 17 ft | 0 kts | 200° |
| 2026-05-07 14:45 | 41.28396 | 2.07548 | 16 ft | 2 kts | 200° |
| 2026-05-07 14:45 | 41.28356 | 2.07529 | 17 ft | 8 kts | 200° |
| 2026-05-07 14:46 | 41.28310 | 2.07485 | 17 ft | 9 kts | 237° |
| 2026-05-07 14:46 | 41.28271 | 2.07414 | 17 ft | 10 kts | 189° |
| 2026-05-07 14:46 | 41.28249 | 2.07484 | 19 ft | 10 kts | 75° |
| 2026-05-07 14:46 | 41.28254 | 2.07503 | 19 ft | 0 kts | 66° |
| 2026-05-07 14:47 | 41.28254 | 2.07504 | 19 ft | 0 kts | 66° |
| 2026-05-07 14:47 | 41.28255 | 2.07506 | 21 ft | 2 kts | 66° |
| 2026-05-07 14:47 | 41.28343 | 2.07763 | 19 ft | 76 kts | 66° |
| 2026-05-07 14:47 | 41.28679 | 2.08758 | 28 ft | 154 kts | 66° |
| 2026-05-07 14:48 | 41.29130 | 2.10103 | 806 ft | 162 kts | 75° |
| 2026-05-07 14:48 | 41.29213 | 2.11613 | 1560 ft | 174 kts | 95° |
| 2026-05-07 14:48 | 41.29132 | 2.12727 | 1775 ft | 192 kts | 98° |
| 2026-05-07 14:48 | 41.28957 | 2.14537 | 2458 ft | 200 kts | 99° |
| 2026-05-07 14:49 | 41.28774 | 2.16394 | 3272 ft | 205 kts | 97° |
| 2026-05-07 14:49 | 41.28593 | 2.18325 | 4078 ft | 210 kts | 97° |
| 2026-05-07 14:49 | 41.28420 | 2.20273 | 4899 ft | 214 kts | 96° |
| 2026-05-07 14:49 | 41.28251 | 2.22260 | 5724 ft | 218 kts | 96° |
| 2026-05-07 14:50 | 41.28086 | 2.24270 | 6553 ft | 221 kts | 96° |
| 2026-05-07 14:50 | 41.27921 | 2.26317 | 7354 ft | 224 kts | 96° |
| 2026-05-07 14:50 | 41.27914 | 2.28395 | 8120 ft | 229 kts | 75° |
| 2026-05-07 14:50 | 41.28703 | 2.30220 | 8848 ft | 235 kts | 42° |
| 2026-05-07 14:51 | 41.30216 | 2.31206 | 9243 ft | 258 kts | 8° |
| 2026-05-07 14:51 | 41.32083 | 2.31477 | 9660 ft | 281 kts | 5° |
| 2026-05-07 14:51 | 41.34075 | 2.31708 | 10210 ft | 297 kts | 4° |
| 2026-05-07 14:51 | 41.36212 | 2.31951 | 10495 ft | 320 kts | 4° |
| 2026-05-07 14:52 | 41.38492 | 2.32221 | 10963 ft | 335 kts | 5° |
| 2026-05-07 14:52 | 41.40832 | 2.32506 | 11664 ft | 341 kts | 5° |
| 2026-05-07 14:52 | 41.43211 | 2.32815 | 12424 ft | 346 kts | 6° |
| 2026-05-07 14:52 | 41.45612 | 2.33265 | 13179 ft | 351 kts | 8° |
| 2026-05-07 14:53 | 41.48036 | 2.33839 | 13898 ft | 356 kts | 10° |
| 2026-05-07 14:53 | 41.50485 | 2.34477 | 14548 ft | 361 kts | 10° |
| 2026-05-07 14:53 | 41.52966 | 2.35138 | 15178 ft | 366 kts | 10° |
| 2026-05-07 14:53 | 41.55483 | 2.35798 | 15818 ft | 370 kts | 10° |
| 2026-05-07 14:54 | 41.58030 | 2.36444 | 16482 ft | 374 kts | 9° |
| 2026-05-07 14:54 | 41.60603 | 2.37082 | 17136 ft | 378 kts | 9° |
| 2026-05-07 14:54 | 41.63220 | 2.37539 | 17781 ft | 381 kts | 358° |
| 2026-05-07 14:54 | 41.65864 | 2.36988 | 18408 ft | 382 kts | 339° |
| 2026-05-07 14:55 | 41.68219 | 2.35382 | 18992 ft | 381 kts | 321° |
| 2026-05-07 14:55 | 41.70087 | 2.32905 | 19595 ft | 379 kts | 303° |
| 2026-05-07 14:55 | 41.71302 | 2.29806 | 20239 ft | 376 kts | 285° |
| 2026-05-07 14:55 | 41.71816 | 2.26389 | 20873 ft | 376 kts | 275° |
| 2026-05-07 14:56 | 41.72142 | 2.22910 | 21497 ft | 378 kts | 274° |
| 2026-05-07 14:56 | 41.72460 | 2.19404 | 22112 ft | 381 kts | 274° |
| 2026-05-07 14:56 | 41.72777 | 2.15875 | 22729 ft | 383 kts | 274° |
| 2026-05-07 14:56 | 41.73095 | 2.12318 | 23339 ft | 386 kts | 274° |
| 2026-05-07 14:57 | 41.73419 | 2.08732 | 23866 ft | 389 kts | 274° |
| 2026-05-07 14:57 | 41.73749 | 2.05134 | 24364 ft | 391 kts | 274° |
| 2026-05-07 14:57 | 41.74080 | 2.01514 | 24877 ft | 392 kts | 274° |
| 2026-05-07 14:57 | 41.74411 | 1.97882 | 25370 ft | 394 kts | 273° |
| 2026-05-07 14:58 | 41.74741 | 1.94230 | 25875 ft | 396 kts | 273° |
| 2026-05-07 14:58 | 41.75068 | 1.90569 | 26360 ft | 397 kts | 273° |
| 2026-05-07 14:58 | 41.75393 | 1.86888 | 26827 ft | 399 kts | 272° |
| 2026-05-07 14:58 | 41.75718 | 1.83188 | 27279 ft | 401 kts | 272° |
| 2026-05-07 14:59 | 41.76043 | 1.79482 | 27732 ft | 402 kts | 272° |
| 2026-05-07 14:59 | 41.76372 | 1.75749 | 28194 ft | 404 kts | 272° |
| 2026-05-07 14:59 | 41.76703 | 1.72000 | 28630 ft | 406 kts | 272° |
| 2026-05-07 14:59 | 41.77113 | 1.68242 | 29072 ft | 411 kts | 277° |
| 2026-05-07 15:00 | 41.77736 | 1.64485 | 29497 ft | 414 kts | 277° |
| 2026-05-07 15:00 | 41.78370 | 1.60662 | 29924 ft | 416 kts | 277° |
| 2026-05-07 15:00 | 41.78997 | 1.56864 | 30292 ft | 418 kts | 277° |
| 2026-05-07 15:00 | 41.79622 | 1.53057 | 30650 ft | 420 kts | 276° |
| 2026-05-07 15:01 | 41.80249 | 1.49227 | 30902 ft | 421 kts | 276° |
| 2026-05-07 15:01 | 41.80874 | 1.45436 | 30953 ft | 409 kts | 276° |
| 2026-05-07 15:01 | 41.82076 | 1.38125 | 30955 ft | 398 kts | 276° |
| 2026-05-07 15:02 | 41.83241 | 1.30891 | 30948 ft | 397 kts | 276° |
| 2026-05-07 15:02 | 41.84407 | 1.23660 | 30946 ft | 397 kts | 276° |
| 2026-05-07 15:03 | 41.84990 | 1.19998 | 30951 ft | 408 kts | 276° |
| 2026-05-07 15:03 | 41.85587 | 1.16229 | 30949 ft | 419 kts | 276° |
| 2026-05-07 15:03 | 41.86819 | 1.08485 | 30947 ft | 427 kts | 276° |
| 2026-05-07 15:04 | 41.88068 | 1.00679 | 30944 ft | 429 kts | 276° |
| 2026-05-07 15:04 | 41.89315 | 0.92839 | 30945 ft | 429 kts | 276° |
| 2026-05-07 15:05 | 41.90557 | 0.84997 | 30929 ft | 431 kts | 276° |
| 2026-05-07 15:05 | 41.91805 | 0.77106 | 30952 ft | 433 kts | 276° |
| 2026-05-07 15:06 | 41.93046 | 0.69142 | 30957 ft | 433 kts | 276° |
| 2026-05-07 15:06 | 41.94273 | 0.61227 | 30959 ft | 433 kts | 276° |
| 2026-05-07 15:07 | 41.95502 | 0.53311 | 30955 ft | 433 kts | 276° |
| 2026-05-07 15:07 | 41.96723 | 0.45389 | 30951 ft | 433 kts | 276° |
| 2026-05-07 15:08 | 41.98101 | 0.37492 | 30951 ft | 440 kts | 284° |
| 2026-05-07 15:08 | 41.99383 | 0.33717 | 31304 ft | 447 kts | 291° |
| 2026-05-07 15:08 | 42.00804 | 0.30008 | 31780 ft | 445 kts | 291° |
| 2026-05-07 15:09 | 42.02204 | 0.26300 | 32262 ft | 443 kts | 290° |
| 2026-05-07 15:09 | 42.03584 | 0.22602 | 32726 ft | 442 kts | 290° |
| 2026-05-07 15:09 | 42.04959 | 0.18898 | 32923 ft | 442 kts | 290° |
| 2026-05-07 15:09 | 42.06331 | 0.15200 | 32939 ft | 442 kts | 290° |
| 2026-05-07 15:10 | 42.09091 | 0.07800 | 32944 ft | 442 kts | 291° |
| 2026-05-07 15:10 | 42.11846 | 0.00403 | 32945 ft | 442 kts | 291° |
| 2026-05-07 15:11 | 42.14596 | -0.07015 | 32946 ft | 443 kts | 291° |
| 2026-05-07 15:11 | 42.17343 | -0.14443 | 32935 ft | 443 kts | 291° |
| 2026-05-07 15:12 | 42.20109 | -0.21922 | 32919 ft | 448 kts | 291° |
| 2026-05-07 15:12 | 42.22908 | -0.29527 | 32920 ft | 451 kts | 291° |
| 2026-05-07 15:13 | 42.25701 | -0.37132 | 32929 ft | 453 kts | 291° |
| 2026-05-07 15:13 | 42.28497 | -0.44769 | 32936 ft | 454 kts | 291° |
| 2026-05-07 15:14 | 42.31291 | -0.52435 | 32938 ft | 455 kts | 291° |
| 2026-05-07 15:14 | 42.34094 | -0.60120 | 32946 ft | 456 kts | 291° |
| 2026-05-07 15:15 | 42.36893 | -0.67809 | 32950 ft | 456 kts | 291° |
| 2026-05-07 15:15 | 42.39687 | -0.75516 | 32953 ft | 457 kts | 291° |
| 2026-05-07 15:16 | 42.42475 | -0.83246 | 32951 ft | 457 kts | 291° |
| 2026-05-07 15:16 | 42.45270 | -0.90985 | 32951 ft | 458 kts | 291° |
| 2026-05-07 15:17 | 42.48058 | -0.98736 | 32951 ft | 457 kts | 291° |
| 2026-05-07 15:17 | 42.50834 | -1.06495 | 32954 ft | 458 kts | 291° |
| 2026-05-07 15:18 | 42.53611 | -1.14267 | 32959 ft | 458 kts | 291° |
| 2026-05-07 15:18 | 42.54308 | -1.16221 | 32949 ft | 458 kts | 291° |
| 2026-05-07 15:19 | 42.56527 | -1.22449 | 32947 ft | 458 kts | 291° |
| 2026-05-07 15:19 | 42.59296 | -1.30239 | 32947 ft | 458 kts | 291° |
| 2026-05-07 15:20 | 42.62049 | -1.38034 | 32943 ft | 458 kts | 291° |
| 2026-05-07 15:20 | 42.64812 | -1.45833 | 32941 ft | 459 kts | 291° |
| 2026-05-07 15:21 | 42.67575 | -1.53640 | 32941 ft | 458 kts | 291° |
| 2026-05-07 15:21 | 42.70341 | -1.61501 | 32940 ft | 458 kts | 291° |
| 2026-05-07 15:22 | 42.73083 | -1.69327 | 32937 ft | 459 kts | 293° |
| 2026-05-07 15:22 | 42.76454 | -1.76756 | 32935 ft | 462 kts | 298° |
| 2026-05-07 15:23 | 42.79932 | -1.84117 | 32933 ft | 463 kts | 298° |
| 2026-05-07 15:23 | 42.83402 | -1.91500 | 32926 ft | 463 kts | 298° |
| 2026-05-07 15:24 | 42.86863 | -1.98901 | 32922 ft | 463 kts | 298° |
| 2026-05-07 15:24 | 42.90315 | -2.06305 | 32918 ft | 463 kts | 298° |
| 2026-05-07 15:25 | 42.93767 | -2.13720 | 32915 ft | 463 kts | 298° |
| 2026-05-07 15:25 | 42.97216 | -2.21139 | 32905 ft | 463 kts | 298° |
| 2026-05-07 15:26 | 43.00676 | -2.28559 | 32905 ft | 463 kts | 298° |
| 2026-05-07 15:26 | 43.04180 | -2.36015 | 32908 ft | 463 kts | 299° |
| 2026-05-07 15:27 | 43.07662 | -2.43423 | 32910 ft | 463 kts | 299° |
| 2026-05-07 15:27 | 43.11125 | -2.50842 | 32913 ft | 463 kts | 298° |
| 2026-05-07 15:28 | 43.14586 | -2.58279 | 32915 ft | 463 kts | 299° |
| 2026-05-07 15:28 | 43.18040 | -2.65706 | 32911 ft | 462 kts | 298° |
| 2026-05-07 15:29 | 43.21484 | -2.73144 | 32908 ft | 462 kts | 298° |
| 2026-05-07 15:29 | 43.24915 | -2.80582 | 32914 ft | 461 kts | 298° |
| 2026-05-07 15:30 | 43.28340 | -2.88023 | 32915 ft | 461 kts | 298° |
| 2026-05-07 15:30 | 43.30920 | -2.95935 | 32914 ft | 451 kts | 280° |
| 2026-05-07 15:31 | 43.32207 | -3.04339 | 32912 ft | 449 kts | 278° |
| 2026-05-07 15:31 | 43.33469 | -3.12744 | 32911 ft | 449 kts | 278° |
| 2026-05-07 15:32 | 43.34721 | -3.21147 | 32905 ft | 449 kts | 278° |
| 2026-05-07 15:32 | 43.35969 | -3.29606 | 32899 ft | 449 kts | 278° |
| 2026-05-07 15:33 | 43.37223 | -3.38013 | 32894 ft | 449 kts | 278° |
| 2026-05-07 15:33 | 43.38494 | -3.46419 | 32901 ft | 449 kts | 278° |
| 2026-05-07 15:34 | 43.39761 | -3.54825 | 32906 ft | 449 kts | 278° |
| 2026-05-07 15:34 | 43.41005 | -3.63127 | 32615 ft | 433 kts | 278° |
| 2026-05-07 15:35 | 43.41600 | -3.67129 | 32354 ft | 424 kts | 278° |
| 2026-05-07 15:35 | 43.42183 | -3.71081 | 32091 ft | 420 kts | 278° |
| 2026-05-07 15:35 | 43.42758 | -3.75009 | 31780 ft | 416 kts | 278° |
| 2026-05-07 15:35 | 43.43325 | -3.78894 | 31273 ft | 412 kts | 278° |
| 2026-05-07 15:36 | 43.43885 | -3.82748 | 30762 ft | 409 kts | 278° |
| 2026-05-07 15:36 | 43.44442 | -3.86573 | 30250 ft | 407 kts | 278° |
| 2026-05-07 15:36 | 43.44968 | -3.90391 | 29695 ft | 403 kts | 274° |
| 2026-05-07 15:36 | 43.45230 | -3.94197 | 29174 ft | 398 kts | 271° |
| 2026-05-07 15:37 | 43.45467 | -3.97968 | 28678 ft | 393 kts | 271° |
| 2026-05-07 15:37 | 43.45701 | -4.01704 | 28177 ft | 390 kts | 271° |
| 2026-05-07 15:37 | 43.45931 | -4.05408 | 27703 ft | 387 kts | 272° |
| 2026-05-07 15:37 | 43.46160 | -4.09094 | 27224 ft | 386 kts | 272° |
| 2026-05-07 15:38 | 43.46389 | -4.12768 | 26760 ft | 384 kts | 272° |
| 2026-05-07 15:38 | 43.46613 | -4.16419 | 26307 ft | 382 kts | 272° |
| 2026-05-07 15:38 | 43.46834 | -4.20050 | 25865 ft | 380 kts | 272° |
| 2026-05-07 15:38 | 43.47055 | -4.23708 | 25430 ft | 378 kts | 272° |
| 2026-05-07 15:39 | 43.47271 | -4.27307 | 24996 ft | 377 kts | 272° |
| 2026-05-07 15:39 | 43.47485 | -4.30895 | 24567 ft | 375 kts | 272° |
| 2026-05-07 15:39 | 43.47695 | -4.34469 | 24137 ft | 374 kts | 272° |
| 2026-05-07 15:39 | 43.47884 | -4.38030 | 23691 ft | 372 kts | 271° |
| 2026-05-07 15:40 | 43.48054 | -4.41583 | 23208 ft | 371 kts | 271° |
| 2026-05-07 15:40 | 43.48214 | -4.45118 | 22742 ft | 368 kts | 271° |
| 2026-05-07 15:40 | 43.48372 | -4.48618 | 22289 ft | 365 kts | 271° |
| 2026-05-07 15:40 | 43.48534 | -4.52092 | 21822 ft | 362 kts | 271° |
| 2026-05-07 15:41 | 43.48714 | -4.55539 | 21350 ft | 359 kts | 272° |
| 2026-05-07 15:41 | 43.48903 | -4.58955 | 20881 ft | 357 kts | 272° |
| 2026-05-07 15:41 | 43.49092 | -4.62346 | 20404 ft | 354 kts | 272° |
| 2026-05-07 15:41 | 43.49282 | -4.65754 | 19924 ft | 351 kts | 272° |
| 2026-05-07 15:42 | 43.49467 | -4.69099 | 19444 ft | 349 kts | 272° |
| 2026-05-07 15:42 | 43.49646 | -4.72420 | 18974 ft | 347 kts | 272° |
| 2026-05-07 15:42 | 43.49819 | -4.75723 | 18501 ft | 345 kts | 272° |
| 2026-05-07 15:42 | 43.49987 | -4.79012 | 18008 ft | 343 kts | 272° |
| 2026-05-07 15:43 | 43.50153 | -4.82277 | 17515 ft | 340 kts | 272° |
| 2026-05-07 15:43 | 43.50317 | -4.85509 | 17052 ft | 337 kts | 272° |
| 2026-05-07 15:43 | 43.50483 | -4.88716 | 16585 ft | 334 kts | 272° |
| 2026-05-07 15:43 | 43.50659 | -4.91889 | 16128 ft | 331 kts | 272° |
| 2026-05-07 15:44 | 43.50841 | -4.95042 | 15672 ft | 329 kts | 272° |
| 2026-05-07 15:44 | 43.51019 | -4.98175 | 15216 ft | 327 kts | 272° |
| 2026-05-07 15:44 | 43.51195 | -5.01290 | 14763 ft | 325 kts | 272° |
| 2026-05-07 15:44 | 43.51372 | -5.04388 | 14313 ft | 324 kts | 272° |
| 2026-05-07 15:45 | 43.51549 | -5.07477 | 13859 ft | 323 kts | 272° |
| 2026-05-07 15:45 | 43.51724 | -5.10553 | 13378 ft | 321 kts | 272° |
| 2026-05-07 15:45 | 43.51895 | -5.13607 | 12926 ft | 319 kts | 272° |
| 2026-05-07 15:45 | 43.52061 | -5.16643 | 12487 ft | 316 kts | 272° |
| 2026-05-07 15:46 | 43.52383 | -5.22650 | 11615 ft | 312 kts | 272° |
| 2026-05-07 15:46 | 43.52541 | -5.25624 | 11188 ft | 311 kts | 272° |
| 2026-05-07 15:46 | 43.52699 | -5.28587 | 10755 ft | 309 kts | 272° |
| 2026-05-07 15:47 | 43.52809 | -5.31540 | 10333 ft | 307 kts | 266° |
| 2026-05-07 15:47 | 43.52513 | -5.34416 | 10048 ft | 299 kts | 255° |
| 2026-05-07 15:47 | 43.52058 | -5.37156 | 9924 ft | 288 kts | 255° |
| 2026-05-07 15:47 | 43.51624 | -5.39860 | 9703 ft | 282 kts | 256° |
| 2026-05-07 15:48 | 43.51199 | -5.42532 | 9141 ft | 288 kts | 256° |
| 2026-05-07 15:48 | 43.50773 | -5.45195 | 8852 ft | 283 kts | 256° |
| 2026-05-07 15:48 | 43.50350 | -5.47825 | 8533 ft | 277 kts | 256° |
| 2026-05-07 15:48 | 43.49948 | -5.50336 | 8266 ft | 262 kts | 255° |
| 2026-05-07 15:49 | 43.49564 | -5.52728 | 7920 ft | 252 kts | 256° |
| 2026-05-07 15:49 | 43.49188 | -5.55046 | 7543 ft | 245 kts | 256° |
| 2026-05-07 15:49 | 43.48818 | -5.57317 | 7168 ft | 242 kts | 256° |
| 2026-05-07 15:49 | 43.48446 | -5.59580 | 6800 ft | 244 kts | 256° |
| 2026-05-07 15:50 | 43.48198 | -5.61095 | 6559 ft | 246 kts | 256° |
| 2026-05-07 15:50 | 43.47820 | -5.63410 | 6190 ft | 249 kts | 257° |
| 2026-05-07 15:50 | 43.47634 | -5.65784 | 5804 ft | 250 kts | 272° |
| 2026-05-07 15:50 | 43.47932 | -5.68093 | 5443 ft | 242 kts | 288° |
| 2026-05-07 15:51 | 43.48463 | -5.70282 | 5093 ft | 240 kts | 288° |
| 2026-05-07 15:51 | 43.48983 | -5.72457 | 4747 ft | 239 kts | 288° |
| 2026-05-07 15:51 | 43.49493 | -5.74629 | 4484 ft | 238 kts | 288° |
| 2026-05-07 15:51 | 43.49993 | -5.76759 | 4192 ft | 229 kts | 288° |
| 2026-05-07 15:52 | 43.50483 | -5.78811 | 3912 ft | 225 kts | 288° |
| 2026-05-07 15:52 | 43.50976 | -5.80869 | 3595 ft | 226 kts | 289° |
| 2026-05-07 15:52 | 43.51465 | -5.82913 | 3301 ft | 219 kts | 288° |
| 2026-05-07 15:52 | 43.51933 | -5.84871 | 3042 ft | 210 kts | 288° |
| 2026-05-07 15:53 | 43.52383 | -5.86753 | 2755 ft | 205 kts | 288° |
| 2026-05-07 15:53 | 43.52818 | -5.88574 | 2467 ft | 194 kts | 289° |
| 2026-05-07 15:53 | 43.53223 | -5.90276 | 2212 ft | 179 kts | 289° |
| 2026-05-07 15:53 | 43.53598 | -5.91849 | 1999 ft | 170 kts | 289° |
| 2026-05-07 15:54 | 43.53959 | -5.93365 | 1768 ft | 163 kts | 290° |
| 2026-05-07 15:54 | 43.54303 | -5.94812 | 1549 ft | 156 kts | 290° |
| 2026-05-07 15:54 | 43.54639 | -5.96216 | 1349 ft | 153 kts | 290° |
| 2026-05-07 15:54 | 43.54966 | -5.97596 | 1149 ft | 149 kts | 289° |
| 2026-05-07 15:55 | 43.55286 | -5.98949 | 985 ft | 147 kts | 291° |
| 2026-05-07 15:55 | 43.55602 | -6.00298 | 731 ft | 147 kts | 291° |
| 2026-05-07 15:55 | 43.55919 | -6.01635 | 543 ft | 147 kts | 291° |
| 2026-05-07 15:55 | 43.56236 | -6.02912 | 425 ft | 101 kts | 289° |
| 2026-05-07 15:56 | 43.56311 | -6.03233 | 424 ft | 3 kts | 287° |
| 2026-05-07 15:56 | 43.56341 | -6.03375 | 416 ft | 31 kts | 287° |
| 2026-05-07 15:56 | 43.56432 | -6.03748 | 413 ft | 45 kts | 288° |
| 2026-05-07 15:56 | 43.56499 | -6.04118 | 418 ft | 34 kts | 271° |
| 2026-05-07 15:57 | 43.56463 | -6.04350 | 423 ft | 14 kts | 231° |
| 2026-05-07 15:57 | 43.56423 | -6.04366 | 420 ft | 8 kts | 171° |
| 2026-05-07 15:57 | 43.56389 | -6.04293 | 419 ft | 11 kts | 107° |
| 2026-05-07 15:57 | 43.56362 | -6.04172 | 419 ft | 15 kts | 107° |
| 2026-05-07 15:58 | 43.56328 | -6.04017 | 421 ft | 19 kts | 109° |
| 2026-05-07 15:58 | 43.56280 | -6.03838 | 419 ft | 21 kts | 108° |
| 2026-05-07 15:58 | 43.56230 | -6.03642 | 421 ft | 23 kts | 108° |
| 2026-05-07 15:58 | 43.56181 | -6.03424 | 423 ft | 24 kts | 107° |
| 2026-05-07 15:59 | 43.56132 | -6.03239 | 426 ft | 13 kts | 145° |
| 2026-05-07 15:59 | 43.56034 | -6.03243 | 418 ft | 15 kts | 204° |
| 2026-05-07 15:59 | 43.56012 | -6.03280 | 419 ft | 0 kts | 240° |